Hayward, CA (94543)

10:50 AM PDT on September 17, 2014 (GMT -0700)
Highland Subdivision, next to CSUEB | Change Station
CLOSE
Current Station
Personal Weather Station
Location: Hayward, CA
Elevation: 430 ft
Nearby Weather Stations

Elev 430 ft 37.66 °N, 122.06 °W | Updated 13 minutes ago

Partly Cloudy
Partly Cloudy
73.8 °F
Feels Like 77 °F
N
0.0
Wind Variable Wind from WSW
Gusts 0.0 mph

Today
High -- | Low -- °F
--% Chance of Precip.
Yesterday
High -- | Low -- °F
Precip. -- in
6:52 AM 7:12 PM
Waning Crescent, 34% visible
Pressure 29.86 in
Visibility 10.0 miles
Clouds Few 1600 ft
Heat Index 77 °F
Dew Point 54 °F
Humidity 50%
Rainfall 0.00 in
Snow Depth 0 in , 0 in , 1 in
UV 4 out of 12
Pollen 5.10 out of 12
PM2.5 Good
Flu Activity Not available.
METAR KHWD 171654Z 00000KT 10SM FEW016 20/16 A2983 RMK AO2 SLP109 T02000156

More Conditions Fewer Conditions

Pressure 29.86 in
Visibility 10.0 miles
Clouds Few 1600 ft
Heat Index 77 °F
Dew Point 54 °F
Humidity 50%
Rainfall 0.00 in
Snow Depth 0 in , 0 in , 1 in
UV 4 out of 12
Pollen 5.10 out of 12
PM2.5 Good
Flu Activity Not available.
METAR KHWD 171654Z 00000KT 10SM FEW016 20/16 A2983 RMK AO2 SLP109 T02000156

More Conditions Fewer Conditions

10-Day Weather Forecast

Almanac

Astronomy

Sep. 17, 2014 Rise Set
Actual Time 6:52 AM PDT 7:12 PM PDT
Civil Twilight 6:25 AM PDT 7:39 PM PDT
Nautical Twilight 5:54 AM PDT 8:09 PM PDT
Astronomical Twilight 5:23 AM PDT 8:41 PM PDT
Moon 1:01 AM PDT 3:22 PM PDT
Length of Visible Light 13h 13m
Length of Day
12h 20m
Tomorrow will be 2m 23s shorter.
Waning Crescent, 34% of the Moon is Illuminated
Today
Waning Crescent
Sep 24
New
Oct 1
First Quarter
Oct 8
Full
Oct 15
Last Quarter

Today's Extremes

State Highs State Lows

Community

WunderPhotos

Upload Photos

1,754,111 photos uploaded!

Nearby

Air Quality

  Air Quality AQ Index Pollutant
Yesterday Good
PM2.5
Yesterday Good
OZONE
Current Good
PM2.5
Wednesday Good
OZONE
Thursday Good
OZONE
Friday Good
OZONE
Saturday Good
PM2.5
Sunday Good
PM2.5
Monday Good
PM2.5

Snow Depth

Station Depth Elevation
Tahoe City Cross 0 in 6750 ft
Spratt Creek 0 in 6200 ft
Summit Meadow 1 in 9122 ft
Leavitt Lake 0 in 9400 ft
Forestdale Creek 0 in 8029 ft

Earthquake Activity

City Distance Mag. Time & Date
Cobb, California 84 miles 2.7 1:23 PM PDT
2014-09-16
Minimum magnitude displayed is 2.5.

Coastal Water Temperatures

Place Temperature
No Stations Reporting

Nearby Weather Stations